createdAt,value
2022-12-02T00:00:32.000Z,3.3
2022-12-02T00:01:48.000Z,3.3
2022-12-02T00:03:04.000Z,3.3
2022-12-02T00:04:20.000Z,3.3
2022-12-02T00:05:36.000Z,3.3
2022-12-02T00:06:52.000Z,3.3
2022-12-02T00:08:08.000Z,3.2
2022-12-02T00:09:24.000Z,3.3
2022-12-02T00:10:40.000Z,3.3
2022-12-02T00:11:57.000Z,3.3
2022-12-02T00:13:13.000Z,3.2
2022-12-02T00:14:29.000Z,3.2
2022-12-02T00:15:45.000Z,3.3
2022-12-02T00:17:01.000Z,3.2
2022-12-02T00:18:17.000Z,3.3
2022-12-02T00:19:34.000Z,3.3
2022-12-02T00:20:50.000Z,3.3
2022-12-02T00:22:05.000Z,3.3
2022-12-02T00:23:21.000Z,3.3
2022-12-02T00:24:37.000Z,3.2
2022-12-02T00:25:54.000Z,3.2
2022-12-02T00:27:10.000Z,3.2
2022-12-02T00:28:26.000Z,3.1
2022-12-02T00:29:42.000Z,3.2
2022-12-02T00:30:58.000Z,3.2
2022-12-02T00:32:15.000Z,3.2
2022-12-02T00:33:31.000Z,3.2
2022-12-02T00:34:47.000Z,3.2
2022-12-02T00:36:03.000Z,3.3
2022-12-02T00:37:19.000Z,3.2
2022-12-02T00:38:34.000Z,3.2
2022-12-02T00:39:51.000Z,3.2
2022-12-02T00:41:07.000Z,3.3
2022-12-02T00:42:23.000Z,3.3
2022-12-02T00:43:39.000Z,3.3
2022-12-02T00:44:55.000Z,3.2
2022-12-02T00:46:12.000Z,3.3
2022-12-02T00:47:28.000Z,3.3
2022-12-02T00:48:44.000Z,3.2
2022-12-02T00:50:00.000Z,3.2
2022-12-02T00:51:16.000Z,3.3
2022-12-02T00:52:33.000Z,3.2
2022-12-02T00:53:49.000Z,3.2
2022-12-02T00:55:04.000Z,3.2
2022-12-02T00:56:20.000Z,3.2
2022-12-02T00:57:36.000Z,3.2
2022-12-02T00:58:53.000Z,3.2
2022-12-02T01:00:09.000Z,3.1
2022-12-02T01:01:25.000Z,3.1
2022-12-02T01:02:41.000Z,3.1
2022-12-02T01:03:57.000Z,3.2
2022-12-02T01:05:13.000Z,3.1
2022-12-02T01:06:30.000Z,3.2
2022-12-02T01:07:46.000Z,3.1
2022-12-02T01:09:02.000Z,3.1
2022-12-02T01:10:18.000Z,3.1
2022-12-02T01:11:33.000Z,3.1
2022-12-02T01:12:50.000Z,3.1
2022-12-02T01:14:06.000Z,3.1
2022-12-02T01:15:22.000Z,3.1
2022-12-02T01:16:38.000Z,3.1
2022-12-02T01:17:54.000Z,3.1
2022-12-02T01:19:11.000Z,3.1
2022-12-02T01:20:27.000Z,3.1
2022-12-02T01:21:43.000Z,3.1
2022-12-02T01:22:59.000Z,3.1
2022-12-02T01:24:15.000Z,3.1
2022-12-02T01:25:31.000Z,3.1
2022-12-02T01:26:48.000Z,3.1
2022-12-02T01:28:03.000Z,3.1
2022-12-02T01:29:19.000Z,3.1
2022-12-02T01:30:35.000Z,3.1
2022-12-02T01:31:51.000Z,3.1
2022-12-02T01:33:08.000Z,3.1
2022-12-02T01:34:24.000Z,3.1
2022-12-02T01:35:40.000Z,3.1
2022-12-02T01:36:56.000Z,3.1
2022-12-02T01:38:12.000Z,3
2022-12-02T01:39:29.000Z,3.1
2022-12-02T01:40:45.000Z,3.1
2022-12-02T01:42:01.000Z,3.1
2022-12-02T01:43:17.000Z,3.1
2022-12-02T01:44:32.000Z,3.1
2022-12-02T01:45:49.000Z,3.1
2022-12-02T01:47:05.000Z,3.1
2022-12-02T01:48:21.000Z,3.1
2022-12-02T01:49:37.000Z,3.1
2022-12-02T01:50:53.000Z,3.1
2022-12-02T01:52:09.000Z,3.1
2022-12-02T01:53:26.000Z,3.1
2022-12-02T01:54:42.000Z,3.1
2022-12-02T01:55:58.000Z,3.1
2022-12-02T01:57:14.000Z,3.1
2022-12-02T01:58:30.000Z,3.1
2022-12-02T01:59:47.000Z,3.1
2022-12-02T02:01:02.000Z,3
2022-12-02T02:02:18.000Z,3
2022-12-02T02:03:34.000Z,3
2022-12-02T02:04:50.000Z,3.1
2022-12-02T02:06:07.000Z,3
2022-12-02T02:07:23.000Z,3
2022-12-02T02:08:39.000Z,3
2022-12-02T02:09:55.000Z,3
2022-12-02T02:11:11.000Z,3.1
2022-12-02T02:12:27.000Z,3.1
2022-12-02T02:13:44.000Z,3
2022-12-02T02:15:00.000Z,3
2022-12-02T02:16:16.000Z,3
2022-12-02T02:17:31.000Z,3
2022-12-02T02:18:47.000Z,3
2022-12-02T02:20:04.000Z,3
2022-12-02T02:21:20.000Z,3
2022-12-02T02:22:36.000Z,3
2022-12-02T02:23:52.000Z,3
2022-12-02T02:25:08.000Z,3
2022-12-02T02:26:25.000Z,3
2022-12-02T02:27:41.000Z,2.9
2022-12-02T02:28:57.000Z,3
2022-12-02T02:30:13.000Z,3
2022-12-02T02:31:29.000Z,3
2022-12-02T02:32:45.000Z,3
2022-12-02T02:34:01.000Z,2.9
2022-12-02T02:35:17.000Z,2.9
2022-12-02T02:36:33.000Z,2.9
2022-12-02T02:37:49.000Z,2.9
2022-12-02T02:39:05.000Z,2.9
2022-12-02T02:40:22.000Z,2.9
2022-12-02T02:41:38.000Z,2.9
2022-12-02T02:42:54.000Z,2.9
2022-12-02T02:44:10.000Z,2.9
2022-12-02T02:45:26.000Z,2.9
2022-12-02T02:46:43.000Z,2.9
2022-12-02T02:47:59.000Z,2.9
2022-12-02T02:49:15.000Z,2.9
2022-12-02T02:50:30.000Z,2.9
2022-12-02T02:51:46.000Z,2.8
2022-12-02T02:53:03.000Z,2.8
2022-12-02T02:54:19.000Z,2.8
2022-12-02T02:55:35.000Z,2.8
2022-12-02T02:56:51.000Z,2.7
2022-12-02T02:58:06.000Z,2.7
2022-12-02T02:59:22.000Z,2.7
2022-12-02T03:00:39.000Z,2.7
2022-12-02T03:01:55.000Z,2.7
2022-12-02T03:03:11.000Z,2.7
2022-12-02T03:04:27.000Z,2.7
2022-12-02T03:05:43.000Z,2.7
2022-12-02T03:07:00.000Z,2.7
2022-12-02T03:08:16.000Z,2.7
2022-12-02T03:09:32.000Z,2.7
2022-12-02T03:10:48.000Z,2.7
2022-12-02T03:12:04.000Z,2.7
2022-12-02T03:13:21.000Z,2.7
2022-12-02T03:14:36.000Z,2.7
2022-12-02T03:15:52.000Z,2.7
2022-12-02T03:17:08.000Z,2.6
2022-12-02T03:18:24.000Z,2.6
2022-12-02T03:19:41.000Z,2.6
2022-12-02T03:20:57.000Z,2.6
2022-12-02T03:22:13.000Z,2.6
2022-12-02T03:23:29.000Z,2.6
2022-12-02T03:24:45.000Z,2.6
2022-12-02T03:26:01.000Z,2.6
2022-12-02T03:27:18.000Z,2.6
2022-12-02T03:28:34.000Z,2.6
2022-12-02T03:29:50.000Z,2.6
2022-12-02T03:31:05.000Z,2.6
2022-12-02T03:32:21.000Z,2.6
2022-12-02T03:33:38.000Z,2.6
2022-12-02T03:34:54.000Z,2.6
2022-12-02T03:36:10.000Z,2.6
2022-12-02T03:37:26.000Z,2.6
2022-12-02T03:38:42.000Z,2.6
2022-12-02T03:39:59.000Z,2.6
2022-12-02T03:41:15.000Z,2.6
2022-12-02T03:42:31.000Z,2.6
2022-12-02T03:43:47.000Z,2.6
2022-12-02T03:45:03.000Z,2.6
2022-12-02T03:46:19.000Z,2.6
2022-12-02T03:47:35.000Z,2.6
2022-12-02T03:48:51.000Z,2.6
2022-12-02T03:50:07.000Z,2.5
2022-12-02T03:51:23.000Z,2.6
2022-12-02T03:52:39.000Z,2.6
2022-12-02T03:53:56.000Z,2.6
2022-12-02T03:55:12.000Z,2.5
2022-12-02T03:56:28.000Z,2.6
2022-12-02T03:57:44.000Z,2.5
2022-12-02T03:59:00.000Z,2.5
2022-12-02T04:00:17.000Z,2.5
2022-12-02T04:01:33.000Z,2.5
2022-12-02T04:02:49.000Z,2.6
2022-12-02T04:04:04.000Z,2.6
2022-12-02T04:05:20.000Z,2.5
2022-12-02T04:06:37.000Z,2.5
2022-12-02T04:07:53.000Z,2.5
2022-12-02T04:09:09.000Z,2.5
2022-12-02T04:10:25.000Z,2.5
2022-12-02T04:11:41.000Z,2.6
2022-12-02T04:12:57.000Z,2.6
2022-12-02T04:14:14.000Z,2.6
2022-12-02T04:15:30.000Z,2.5
2022-12-02T04:16:46.000Z,2.6
2022-12-02T04:18:02.000Z,2.6
2022-12-02T04:19:18.000Z,2.6
2022-12-02T04:20:34.000Z,2.6
2022-12-02T04:21:50.000Z,2.6
2022-12-02T04:23:06.000Z,2.6
2022-12-02T04:24:22.000Z,2.5
2022-12-02T04:25:38.000Z,2.5
2022-12-02T04:26:55.000Z,2.5
2022-12-02T04:28:11.000Z,2.6
2022-12-02T04:29:27.000Z,2.6
2022-12-02T04:30:43.000Z,2.6
2022-12-02T04:31:59.000Z,2.6
2022-12-02T04:33:15.000Z,2.5
2022-12-02T04:34:32.000Z,2.5
2022-12-02T04:35:48.000Z,2.5
2022-12-02T04:37:03.000Z,2.5
2022-12-02T04:38:19.000Z,2.5
2022-12-02T04:39:35.000Z,2.6
2022-12-02T04:40:52.000Z,2.5
2022-12-02T04:42:08.000Z,2.6
2022-12-02T04:43:24.000Z,2.6
2022-12-02T04:44:40.000Z,2.6
2022-12-02T04:45:56.000Z,2.6
2022-12-02T04:47:13.000Z,2.6
2022-12-02T04:48:29.000Z,2.6
2022-12-02T04:49:45.000Z,2.5
2022-12-02T04:51:01.000Z,2.5
2022-12-02T04:52:17.000Z,2.6
2022-12-02T04:53:33.000Z,2.6
2022-12-02T04:54:49.000Z,2.6
2022-12-02T04:56:05.000Z,2.6
2022-12-02T04:57:21.000Z,2.6
2022-12-02T04:58:37.000Z,2.6
2022-12-02T04:59:53.000Z,2.6
2022-12-02T05:01:10.000Z,2.6
2022-12-02T05:02:26.000Z,2.6
2022-12-02T05:03:42.000Z,2.6
2022-12-02T05:04:58.000Z,2.6
2022-12-02T05:06:14.000Z,2.6
2022-12-02T05:07:31.000Z,2.6
2022-12-02T05:08:47.000Z,2.6
2022-12-02T05:10:02.000Z,2.7
2022-12-02T05:11:18.000Z,2.7
2022-12-02T05:12:34.000Z,2.7
2022-12-02T05:13:51.000Z,2.7
2022-12-02T05:15:07.000Z,2.6
2022-12-02T05:16:23.000Z,2.6
2022-12-02T05:17:39.000Z,2.6
2022-12-02T05:18:55.000Z,2.6
2022-12-02T05:20:11.000Z,2.7
2022-12-02T05:21:28.000Z,2.7
2022-12-02T05:22:44.000Z,2.7
2022-12-02T05:24:00.000Z,2.7
2022-12-02T05:25:16.000Z,2.7
2022-12-02T05:26:31.000Z,2.7
2022-12-02T05:27:48.000Z,2.7
2022-12-02T05:29:04.000Z,2.7
2022-12-02T05:30:20.000Z,2.7
2022-12-02T05:31:36.000Z,2.7
2022-12-02T05:32:52.000Z,2.6
2022-12-02T05:34:09.000Z,2.6
2022-12-02T05:35:25.000Z,2.7
2022-12-02T05:36:41.000Z,2.6
2022-12-02T05:37:57.000Z,2.6
2022-12-02T05:39:13.000Z,2.6
2022-12-02T05:40:30.000Z,2.6
2022-12-02T05:41:46.000Z,2.6
2022-12-02T05:43:01.000Z,2.7
2022-12-02T05:44:17.000Z,2.6
2022-12-02T05:45:33.000Z,2.6
2022-12-02T05:46:49.000Z,2.6
2022-12-02T05:48:06.000Z,2.6
2022-12-02T05:49:22.000Z,2.6
2022-12-02T05:50:38.000Z,2.6
2022-12-02T05:51:54.000Z,2.7
2022-12-02T05:53:10.000Z,2.7
2022-12-02T05:54:27.000Z,2.6
2022-12-02T05:55:43.000Z,2.6
2022-12-02T05:56:59.000Z,2.7
2022-12-02T05:58:15.000Z,2.7
2022-12-02T05:59:30.000Z,2.7
2022-12-02T06:00:47.000Z,2.7
2022-12-02T06:02:03.000Z,2.7
2022-12-02T06:03:19.000Z,2.7
2022-12-02T06:04:35.000Z,2.7
2022-12-02T06:05:51.000Z,2.7
2022-12-02T06:07:08.000Z,2.7
2022-12-02T06:08:24.000Z,2.7
2022-12-02T06:09:40.000Z,2.7
2022-12-02T06:10:56.000Z,2.7
2022-12-02T06:12:12.000Z,2.7
2022-12-02T06:13:28.000Z,2.7
2022-12-02T06:14:45.000Z,2.7
2022-12-02T06:16:00.000Z,2.7
2022-12-02T06:17:16.000Z,2.7
2022-12-02T06:18:32.000Z,2.7
2022-12-02T06:19:48.000Z,2.7
2022-12-02T06:21:05.000Z,2.7
2022-12-02T06:22:21.000Z,2.7
2022-12-02T06:23:37.000Z,2.6
2022-12-02T06:24:53.000Z,2.7
2022-12-02T06:26:09.000Z,2.7
2022-12-02T06:27:26.000Z,2.7
2022-12-02T06:28:42.000Z,2.7
2022-12-02T06:29:58.000Z,2.7
2022-12-02T06:31:14.000Z,2.7
2022-12-02T06:32:29.000Z,2.7
2022-12-02T06:33:45.000Z,2.7
2022-12-02T06:35:02.000Z,2.7
2022-12-02T06:36:18.000Z,2.7
2022-12-02T06:37:34.000Z,2.7
2022-12-02T06:38:50.000Z,2.7
2022-12-02T06:40:06.000Z,2.6
2022-12-02T06:41:23.000Z,2.6
2022-12-02T06:42:39.000Z,2.6
2022-12-02T06:43:55.000Z,2.7
2022-12-02T06:45:11.000Z,2.7
2022-12-02T06:46:27.000Z,2.7
2022-12-02T06:47:44.000Z,2.7
2022-12-02T06:48:59.000Z,2.7
2022-12-02T06:50:15.000Z,2.7
2022-12-02T06:51:31.000Z,2.7
2022-12-02T06:52:47.000Z,2.7
2022-12-02T06:54:04.000Z,2.7
2022-12-02T06:55:20.000Z,2.7
2022-12-02T06:56:36.000Z,2.7
2022-12-02T06:57:52.000Z,2.7
2022-12-02T06:59:08.000Z,2.7
2022-12-02T07:00:24.000Z,2.6
2022-12-02T07:01:41.000Z,2.7
2022-12-02T07:02:57.000Z,2.6
2022-12-02T07:04:13.000Z,2.7
2022-12-02T07:05:28.000Z,2.7
2022-12-02T07:06:44.000Z,2.7
2022-12-02T07:08:01.000Z,2.7
2022-12-02T07:09:17.000Z,2.7
2022-12-02T07:10:33.000Z,2.7
2022-12-02T07:11:49.000Z,2.6
2022-12-02T07:13:04.000Z,2.6
2022-12-02T07:14:21.000Z,2.6
2022-12-02T07:15:37.000Z,2.6
2022-12-02T07:16:53.000Z,2.6
2022-12-02T07:18:09.000Z,2.6
2022-12-02T07:19:25.000Z,2.6
2022-12-02T07:20:41.000Z,2.6
2022-12-02T07:21:58.000Z,2.5
2022-12-02T07:23:14.000Z,2.5
2022-12-02T07:24:30.000Z,2.5
2022-12-02T07:25:46.000Z,2.5
2022-12-02T07:27:02.000Z,2.5
2022-12-02T07:28:19.000Z,2.5
2022-12-02T07:29:34.000Z,2.5
2022-12-02T07:30:50.000Z,2.5
2022-12-02T07:32:06.000Z,2.5
2022-12-02T07:33:22.000Z,2.5
2022-12-02T07:34:39.000Z,2.5
2022-12-02T07:35:55.000Z,2.4
2022-12-02T07:37:11.000Z,2.4
2022-12-02T07:38:27.000Z,2.4
2022-12-02T07:39:43.000Z,2.4
2022-12-02T07:41:00.000Z,2.4
2022-12-02T07:42:16.000Z,2.4
2022-12-02T07:43:32.000Z,2.4
2022-12-02T07:44:48.000Z,2.4
2022-12-02T07:46:03.000Z,2.4
2022-12-02T07:47:20.000Z,2.4
2022-12-02T07:48:36.000Z,2.4
2022-12-02T07:49:52.000Z,2.4
2022-12-02T07:51:08.000Z,2.3
2022-12-02T07:52:24.000Z,2.4
2022-12-02T07:53:40.000Z,2.3
2022-12-02T07:54:57.000Z,2.3
2022-12-02T07:56:13.000Z,2.3
2022-12-02T07:57:29.000Z,2.3
2022-12-02T07:58:45.000Z,2.3
2022-12-02T08:00:01.000Z,2.4
2022-12-02T08:01:18.000Z,2.3
2022-12-02T08:02:33.000Z,2.3
2022-12-02T08:03:49.000Z,2.3
2022-12-02T08:05:05.000Z,2.3
2022-12-02T08:06:21.000Z,2.3
2022-12-02T08:07:38.000Z,2.3
2022-12-02T08:08:54.000Z,2.3
2022-12-02T08:10:10.000Z,2.4
2022-12-02T08:11:26.000Z,2.4
2022-12-02T08:12:42.000Z,2.4
2022-12-02T08:13:58.000Z,2.4
2022-12-02T08:15:15.000Z,2.4
2022-12-02T08:16:31.000Z,2.4
2022-12-02T08:17:47.000Z,2.3
2022-12-02T08:19:02.000Z,2.3
2022-12-02T08:20:18.000Z,2.4
2022-12-02T08:21:35.000Z,2.3
2022-12-02T08:22:51.000Z,2.3
2022-12-02T08:24:07.000Z,2.3
2022-12-02T08:25:23.000Z,2.3
2022-12-02T08:26:39.000Z,2.3
2022-12-02T08:27:56.000Z,2.3
2022-12-02T08:29:12.000Z,2.3
2022-12-02T08:30:28.000Z,2.3
2022-12-02T08:31:44.000Z,2.3
2022-12-02T08:33:00.000Z,2.3
2022-12-02T08:34:17.000Z,2.3
2022-12-02T08:35:32.000Z,2.4
2022-12-02T08:36:48.000Z,2.3
2022-12-02T08:38:04.000Z,2.3
2022-12-02T08:39:20.000Z,2.3
2022-12-02T08:40:37.000Z,2.3
2022-12-02T08:41:53.000Z,2.3
2022-12-02T08:43:09.000Z,2.4
2022-12-02T08:44:25.000Z,2.3
2022-12-02T08:45:41.000Z,2.3
2022-12-02T08:46:57.000Z,2.3
2022-12-02T08:48:14.000Z,2.3
2022-12-02T08:49:30.000Z,2.3
2022-12-02T08:50:46.000Z,2.3
2022-12-02T08:52:01.000Z,2.3
2022-12-02T08:53:17.000Z,2.4
2022-12-02T08:54:34.000Z,2.3
2022-12-02T08:55:50.000Z,2.4
2022-12-02T08:57:06.000Z,2.4
2022-12-02T08:58:22.000Z,2.4
2022-12-02T08:59:38.000Z,2.4
2022-12-02T09:00:55.000Z,2.4
2022-12-02T09:02:11.000Z,2.3
2022-12-02T09:03:27.000Z,2.3
2022-12-02T09:04:43.000Z,2.4
2022-12-02T09:05:59.000Z,2.3
2022-12-02T09:07:15.000Z,2.4
2022-12-02T09:08:31.000Z,2.4
2022-12-02T09:09:47.000Z,2.4
2022-12-02T09:11:03.000Z,2.4
2022-12-02T09:12:19.000Z,2.4
2022-12-02T09:13:35.000Z,2.4
2022-12-02T09:14:52.000Z,2.4
2022-12-02T09:16:08.000Z,2.4
2022-12-02T09:17:24.000Z,2.3
2022-12-02T09:18:40.000Z,2.4
2022-12-02T09:19:56.000Z,2.4
2022-12-02T09:21:13.000Z,2.4
2022-12-02T09:22:29.000Z,2.4
2022-12-02T09:23:45.000Z,2.3
2022-12-02T09:25:00.000Z,2.4
2022-12-02T09:26:16.000Z,2.4
2022-12-02T09:27:33.000Z,2.4
2022-12-02T09:28:49.000Z,2.4
2022-12-02T09:30:05.000Z,2.3
2022-12-02T09:31:21.000Z,2.3
2022-12-02T09:32:37.000Z,2.3
2022-12-02T09:33:53.000Z,2.2
2022-12-02T09:35:10.000Z,2.3
2022-12-02T09:36:26.000Z,2.2
2022-12-02T09:37:42.000Z,2.2
2022-12-02T09:38:58.000Z,2.2
2022-12-02T09:40:14.000Z,2.2
2022-12-02T09:41:30.000Z,2.2
2022-12-02T09:42:46.000Z,2.2
2022-12-02T09:44:02.000Z,2.2
2022-12-02T09:45:18.000Z,2.2
2022-12-02T09:46:34.000Z,2.2
2022-12-02T09:47:51.000Z,2.2
2022-12-02T09:49:07.283Z,2.2
2022-12-02T09:50:23.000Z,2.2
2022-12-02T09:51:39.000Z,2.2
2022-12-02T09:52:55.000Z,2.2
2022-12-02T09:54:12.000Z,2.2
2022-12-02T09:55:28.000Z,2.2
2022-12-02T09:56:44.000Z,2.2
2022-12-02T09:57:59.000Z,2.2
2022-12-02T09:59:15.000Z,2.2
2022-12-02T10:00:32.000Z,2.2
2022-12-02T10:01:48.000Z,2.2
2022-12-02T10:03:04.000Z,2.2
2022-12-02T10:04:20.000Z,2.2
2022-12-02T10:05:36.000Z,2.2
2022-12-02T10:06:52.000Z,2.2
2022-12-02T10:08:09.000Z,2.2
2022-12-02T10:09:25.000Z,2.2
2022-12-02T10:10:41.000Z,2.2
2022-12-02T10:11:57.000Z,2.3
2022-12-02T10:13:13.000Z,2.3
2022-12-02T10:14:29.000Z,2.3
2022-12-02T10:15:45.000Z,2.3
2022-12-02T10:17:01.000Z,2.3
2022-12-02T10:18:17.000Z,2.3
2022-12-02T10:19:33.000Z,2.3
2022-12-02T10:20:50.000Z,2.4
2022-12-02T10:22:06.000Z,2.4
2022-12-02T10:23:22.000Z,2.4
2022-12-02T10:24:38.000Z,2.4
2022-12-02T10:25:54.000Z,2.4
2022-12-02T10:27:10.000Z,2.4
2022-12-02T10:28:27.000Z,2.4
2022-12-02T10:29:43.000Z,2.4
2022-12-02T10:30:58.000Z,2.4
2022-12-02T10:32:14.000Z,2.4
2022-12-02T10:33:30.000Z,2.4
2022-12-02T10:34:47.000Z,2.3
2022-12-02T10:36:03.000Z,2.3
2022-12-02T10:37:19.000Z,2.4
2022-12-02T10:38:35.000Z,2.4
2022-12-02T10:39:51.000Z,2.3
2022-12-02T10:41:08.000Z,2.4
2022-12-02T10:42:24.000Z,2.3
2022-12-02T10:43:40.000Z,2.3
2022-12-02T10:44:56.000Z,2.4
2022-12-02T10:46:12.000Z,2.4
2022-12-02T10:47:29.000Z,2.4
2022-12-02T10:48:44.000Z,2.5
2022-12-02T10:50:00.000Z,2.5
2022-12-02T10:51:16.000Z,2.4
2022-12-02T10:52:32.000Z,2.4
2022-12-02T10:53:48.000Z,2.4
2022-12-02T10:55:05.000Z,2.5
2022-12-02T10:56:21.000Z,2.5
2022-12-02T10:57:37.000Z,2.5
2022-12-02T10:58:53.000Z,2.5
2022-12-02T11:00:09.000Z,2.5
2022-12-02T11:01:26.000Z,2.6
2022-12-02T11:02:42.000Z,2.5
2022-12-02T11:03:58.000Z,2.6
2022-12-02T11:05:13.000Z,2.5
2022-12-02T11:06:29.000Z,2.5
2022-12-02T11:07:46.000Z,2.6
2022-12-02T11:09:02.000Z,2.6
2022-12-02T11:10:18.000Z,2.7
2022-12-02T11:11:34.000Z,2.7
2022-12-02T11:12:50.000Z,2.7
2022-12-02T11:14:07.000Z,2.6
2022-12-02T11:15:23.000Z,2.6
2022-12-02T11:16:39.000Z,2.7
2022-12-02T11:17:55.000Z,2.8
2022-12-02T11:19:11.000Z,2.8
2022-12-02T11:20:27.000Z,2.8
2022-12-02T11:21:43.000Z,2.7
2022-12-02T11:22:59.000Z,2.7
2022-12-02T11:24:15.000Z,2.7
2022-12-02T11:25:31.000Z,2.7
2022-12-02T11:26:47.000Z,2.7
2022-12-02T11:28:03.000Z,2.7
2022-12-02T11:29:19.000Z,2.7
2022-12-02T11:30:35.000Z,2.8
2022-12-02T11:31:51.000Z,2.7
2022-12-02T11:33:07.000Z,2.7
2022-12-02T11:34:24.000Z,2.7
2022-12-02T11:35:40.000Z,2.7
2022-12-02T11:36:56.000Z,2.7
2022-12-02T11:38:12.000Z,2.7
2022-12-02T11:39:28.000Z,2.7
2022-12-02T11:40:45.000Z,2.7
2022-12-02T11:42:01.000Z,2.7
2022-12-02T11:43:17.000Z,2.7
2022-12-02T11:44:32.000Z,2.6
2022-12-02T11:45:48.000Z,2.7
2022-12-02T11:47:05.000Z,2.7
2022-12-02T11:48:21.000Z,2.7
2022-12-02T11:49:37.000Z,2.7
2022-12-02T11:50:53.000Z,2.7
2022-12-02T11:52:09.000Z,2.7
2022-12-02T11:53:25.000Z,2.7
2022-12-02T11:54:42.000Z,2.7
2022-12-02T11:55:58.000Z,2.7
2022-12-02T11:57:14.000Z,2.6
2022-12-02T11:58:30.000Z,2.7
2022-12-02T11:59:46.000Z,2.7
2022-12-02T12:01:02.000Z,2.7
2022-12-02T12:02:18.000Z,2.7
2022-12-02T12:03:34.000Z,2.7
2022-12-02T12:04:50.000Z,2.7
2022-12-02T12:06:06.000Z,2.7
2022-12-02T12:07:23.000Z,2.7
2022-12-02T12:08:39.000Z,2.7
2022-12-02T12:09:55.000Z,2.7
2022-12-02T12:11:11.000Z,2.6
2022-12-02T12:12:27.000Z,2.7
2022-12-02T12:13:44.000Z,2.7
2022-12-02T12:15:00.000Z,2.7
2022-12-02T12:16:16.000Z,2.7
2022-12-02T12:17:31.000Z,2.7
2022-12-02T12:18:47.000Z,2.7
2022-12-02T12:20:03.000Z,2.7
2022-12-02T12:21:20.000Z,2.7
2022-12-02T12:22:36.000Z,2.7
2022-12-02T12:23:52.000Z,2.7
2022-12-02T12:25:08.000Z,2.6
2022-12-02T12:26:24.000Z,2.6
2022-12-02T12:27:41.000Z,2.6
2022-12-02T12:28:57.000Z,2.7
2022-12-02T12:30:13.000Z,2.7
2022-12-02T12:31:29.000Z,2.7
2022-12-02T12:32:45.000Z,2.7
2022-12-02T12:34:01.000Z,2.6
2022-12-02T12:35:17.000Z,2.6
2022-12-02T12:36:33.000Z,2.6
2022-12-02T12:37:49.000Z,2.6
2022-12-02T12:39:05.000Z,2.6
2022-12-02T12:40:22.000Z,2.6
2022-12-02T12:41:38.000Z,2.6
2022-12-02T12:42:54.000Z,2.6
2022-12-02T12:44:10.000Z,2.6
2022-12-02T12:45:26.000Z,2.6
2022-12-02T12:46:42.000Z,2.5
2022-12-02T12:47:59.000Z,2.6
2022-12-02T12:49:15.000Z,2.6
2022-12-02T12:50:30.000Z,2.6
2022-12-02T12:51:46.000Z,2.6
2022-12-02T12:53:02.000Z,2.6
2022-12-02T12:54:19.000Z,2.6
2022-12-02T12:55:35.000Z,2.6
2022-12-02T12:56:51.000Z,2.6
2022-12-02T12:58:07.000Z,2.6
2022-12-02T12:59:23.000Z,2.6
2022-12-02T13:00:40.000Z,2.6
2022-12-02T13:01:56.000Z,2.6
2022-12-02T13:03:12.000Z,2.6
2022-12-02T13:04:28.000Z,2.6
2022-12-02T13:05:44.000Z,2.6
2022-12-02T13:07:00.000Z,2.6
2022-12-02T13:08:16.000Z,2.6
2022-12-02T13:09:32.000Z,2.6
2022-12-02T13:10:48.000Z,2.6
2022-12-02T13:12:04.000Z,2.6
2022-12-02T13:13:20.000Z,2.6
2022-12-02T13:14:37.000Z,2.6
2022-12-02T13:15:53.000Z,2.6
2022-12-02T13:17:09.000Z,2.6
2022-12-02T13:18:25.000Z,2.6
2022-12-02T13:19:41.000Z,2.6
2022-12-02T13:20:58.000Z,2.6
2022-12-02T13:22:14.000Z,2.6
2022-12-02T13:23:30.000Z,2.6
2022-12-02T13:24:45.000Z,2.5
2022-12-02T13:26:01.000Z,2.6
2022-12-02T13:27:18.000Z,2.6
2022-12-02T13:28:34.000Z,2.6
2022-12-02T13:29:50.000Z,2.6
2022-12-02T13:31:06.000Z,2.6
2022-12-02T13:32:22.000Z,2.7
2022-12-02T13:33:39.000Z,2.6
2022-12-02T13:34:55.000Z,2.7
2022-12-02T13:36:11.000Z,2.6
2022-12-02T13:37:27.000Z,2.7
2022-12-02T13:38:43.000Z,2.7
2022-12-02T13:39:59.000Z,2.7
2022-12-02T13:41:15.000Z,2.7
2022-12-02T13:42:31.000Z,2.7
2022-12-02T13:43:47.000Z,2.7
2022-12-02T13:45:03.000Z,2.7
2022-12-02T13:46:19.000Z,2.7
2022-12-02T13:47:36.000Z,2.6
2022-12-02T13:48:52.000Z,2.6
2022-12-02T13:50:08.000Z,2.6
2022-12-02T13:51:24.000Z,2.7
2022-12-02T13:52:40.000Z,2.7
2022-12-02T13:53:57.000Z,2.7
2022-12-02T13:55:13.000Z,2.7
2022-12-02T13:56:29.000Z,2.6
2022-12-02T13:57:44.000Z,2.6
2022-12-02T13:59:00.000Z,2.7
2022-12-02T14:00:17.000Z,2.6
2022-12-02T14:01:33.000Z,2.6
2022-12-02T14:02:49.000Z,2.6
2022-12-02T14:04:05.000Z,2.6
2022-12-02T14:05:21.000Z,2.6
2022-12-02T14:06:37.000Z,2.6
2022-12-02T14:07:54.000Z,2.6
2022-12-02T14:09:10.000Z,2.6
2022-12-02T14:10:26.000Z,2.6
2022-12-02T14:11:42.000Z,2.6
2022-12-02T14:12:58.000Z,2.6
2022-12-02T14:14:14.000Z,2.6
2022-12-02T14:15:30.000Z,2.7
2022-12-02T14:16:46.000Z,2.7
2022-12-02T14:18:02.000Z,2.6
2022-12-02T14:19:18.000Z,2.6
2022-12-02T14:20:35.000Z,2.6
2022-12-02T14:21:51.000Z,2.6
2022-12-02T14:23:07.000Z,2.6
2022-12-02T14:24:23.000Z,2.6
2022-12-02T14:25:39.000Z,2.5
2022-12-02T14:26:56.000Z,2.5
2022-12-02T14:28:12.000Z,2.5
2022-12-02T14:29:28.000Z,2.5
2022-12-02T14:30:43.000Z,2.6
2022-12-02T14:31:59.000Z,2.6
2022-12-02T14:33:15.000Z,2.5
2022-12-02T14:34:32.000Z,2.5
2022-12-02T14:35:48.000Z,2.5
2022-12-02T14:37:04.000Z,2.5
2022-12-02T14:38:20.000Z,2.5
2022-12-02T14:39:36.000Z,2.5
2022-12-02T14:40:53.000Z,2.5
2022-12-02T14:42:09.000Z,2.5
2022-12-02T14:43:25.000Z,2.5
2022-12-02T14:44:41.000Z,2.5
2022-12-02T14:45:57.000Z,2.5
2022-12-02T14:47:13.000Z,2.5
2022-12-02T14:48:29.000Z,2.5
2022-12-02T14:49:45.000Z,2.5
2022-12-02T14:51:01.000Z,2.5
2022-12-02T14:52:17.000Z,2.5
2022-12-02T14:53:34.000Z,2.5
2022-12-02T14:54:50.000Z,2.6
2022-12-02T14:56:06.000Z,2.6
2022-12-02T14:57:22.000Z,2.6
2022-12-02T14:58:38.000Z,2.6
2022-12-02T14:59:54.000Z,2.6
2022-12-02T15:01:11.000Z,2.5
2022-12-02T15:02:27.000Z,2.5
2022-12-02T15:03:42.000Z,2.5
2022-12-02T15:04:58.000Z,2.5
2022-12-02T15:06:14.000Z,2.5
2022-12-02T15:07:31.000Z,2.5
2022-12-02T15:08:47.000Z,2.5
2022-12-02T15:10:03.000Z,2.5
2022-12-02T15:11:19.000Z,2.6
2022-12-02T15:12:35.000Z,2.5
2022-12-02T15:13:52.000Z,2.5
2022-12-02T15:15:08.000Z,2.5
2022-12-02T15:16:24.000Z,2.5
2022-12-02T15:17:40.000Z,2.5
2022-12-02T15:18:56.000Z,2.5
2022-12-02T15:20:12.000Z,2.5
2022-12-02T15:21:28.000Z,2.5
2022-12-02T15:22:44.000Z,2.5
2022-12-02T15:24:00.000Z,2.4
2022-12-02T15:25:16.000Z,2.4
2022-12-02T15:26:32.000Z,2.4
2022-12-02T15:27:49.000Z,2.4
2022-12-02T15:29:05.000Z,2.4
2022-12-02T15:30:21.000Z,2.4
2022-12-02T15:31:37.000Z,2.5
2022-12-02T15:32:53.000Z,2.4
2022-12-02T15:34:10.000Z,2.4
2022-12-02T15:35:26.000Z,2.5
2022-12-02T15:36:41.000Z,2.5
2022-12-02T15:37:57.000Z,2.4
2022-12-02T15:39:13.000Z,2.5
2022-12-02T15:40:30.000Z,2.5
2022-12-02T15:41:46.000Z,2.4
2022-12-02T15:43:01.000Z,2.5
2022-12-02T15:44:17.000Z,2.5
2022-12-02T15:45:33.000Z,2.5
2022-12-02T15:46:50.000Z,2.5
2022-12-02T15:48:06.000Z,2.5
2022-12-02T15:49:22.000Z,2.5
2022-12-02T15:50:38.000Z,2.5
2022-12-02T15:51:54.000Z,2.4
2022-12-02T15:53:11.000Z,2.4
2022-12-02T15:54:27.000Z,2.4
2022-12-02T15:55:43.000Z,2.4
2022-12-02T15:56:59.000Z,2.4
2022-12-02T15:58:15.000Z,2.4
2022-12-02T15:59:30.000Z,2.4
2022-12-02T16:00:47.000Z,2.3
2022-12-02T16:02:03.000Z,2.2
2022-12-02T16:03:19.000Z,2.2
2022-12-02T16:04:35.000Z,2.2
2022-12-02T16:05:51.000Z,2.2
2022-12-02T16:07:08.000Z,2.2
2022-12-02T16:08:24.000Z,2.2
2022-12-02T16:09:40.000Z,2.2
2022-12-02T16:10:56.000Z,2.1
2022-12-02T16:12:12.000Z,2.1
2022-12-02T16:13:29.000Z,2.1
2022-12-02T16:14:45.000Z,2
2022-12-02T16:16:00.000Z,2
2022-12-02T16:17:16.000Z,2
2022-12-02T16:18:32.000Z,2
2022-12-02T16:19:49.000Z,2
2022-12-02T16:21:05.000Z,2
2022-12-02T16:22:21.000Z,2
2022-12-02T16:23:37.000Z,2
2022-12-02T16:24:53.000Z,2
2022-12-02T16:26:09.000Z,2
2022-12-02T16:27:26.000Z,2
2022-12-02T16:28:42.000Z,2
2022-12-02T16:29:58.000Z,2
2022-12-02T16:31:14.000Z,2
2022-12-02T16:32:29.000Z,2
2022-12-02T16:33:46.000Z,2
2022-12-02T16:35:02.000Z,2
2022-12-02T16:36:18.000Z,2
2022-12-02T16:37:34.000Z,2
2022-12-02T16:38:50.000Z,2
2022-12-02T16:40:07.000Z,2
2022-12-02T16:41:23.000Z,2
2022-12-02T16:42:39.000Z,2
2022-12-02T16:43:55.000Z,2
2022-12-02T16:45:11.000Z,2
2022-12-02T16:46:28.000Z,2
2022-12-02T16:47:44.000Z,2
2022-12-02T16:48:59.000Z,2
2022-12-02T16:50:15.000Z,2
2022-12-02T16:51:31.000Z,2
2022-12-02T16:52:47.000Z,2
2022-12-02T16:54:04.000Z,2
2022-12-02T16:55:20.000Z,2
2022-12-02T16:56:36.000Z,2
2022-12-02T16:57:52.000Z,2
2022-12-02T16:59:08.000Z,2
2022-12-02T17:00:25.000Z,2
2022-12-02T17:01:41.000Z,2
2022-12-02T17:02:57.000Z,2
2022-12-02T17:04:13.000Z,2
2022-12-02T17:05:28.000Z,2
2022-12-02T17:06:45.000Z,2
2022-12-02T17:08:01.000Z,2
2022-12-02T17:09:17.000Z,2
2022-12-02T17:10:33.000Z,2
2022-12-02T17:11:49.000Z,2
2022-12-02T17:13:05.000Z,2
2022-12-02T17:14:22.000Z,2
2022-12-02T17:15:38.000Z,2
2022-12-02T17:16:54.000Z,2
2022-12-02T17:18:10.000Z,2
2022-12-02T17:19:26.000Z,2
2022-12-02T17:20:43.000Z,2
2022-12-02T17:21:58.000Z,2
2022-12-02T17:23:14.000Z,2
2022-12-02T17:24:30.000Z,2
2022-12-02T17:25:46.000Z,2.1
2022-12-02T17:27:03.000Z,2
2022-12-02T17:28:19.000Z,2
2022-12-02T17:29:35.000Z,2
2022-12-02T17:30:51.000Z,2.1
2022-12-02T17:32:07.000Z,2.1
2022-12-02T17:33:24.000Z,2.1
2022-12-02T17:34:40.000Z,2.1